createdAt,value
2022-11-12T00:00:08.109Z,99731.66
2022-11-12T00:01:28.165Z,99738.34
2022-11-12T00:02:48.394Z,99729.63
2022-11-12T00:04:09.548Z,99733.13
2022-11-12T00:05:30.481Z,99723.59
2022-11-12T00:06:50.956Z,99714.25
2022-11-12T00:08:11.643Z,99723.78
2022-11-12T00:09:32.095Z,99710.53
2022-11-12T00:10:52.451Z,99707.16
2022-11-12T00:12:12.890Z,99717.97
2022-11-12T00:13:33.182Z,99716.28
2022-11-12T00:14:53.240Z,99726.47
2022-11-12T00:16:13.565Z,99728.34
2022-11-12T00:17:33.800Z,99697.41
2022-11-12T00:18:54.114Z,99738.50
2022-11-12T00:20:14.642Z,99734.97
2022-11-12T00:21:34.914Z,99738.72
2022-11-12T00:22:55.248Z,99730.00
2022-11-12T00:24:15.393Z,99730.00
2022-11-12T00:25:35.732Z,99713.81
2022-11-12T00:26:56.229Z,99722.94
2022-11-12T00:28:16.437Z,99707.16
2022-11-12T00:29:36.771Z,99717.97
2022-11-12T00:30:57.061Z,99713.59
2022-11-12T00:32:17.518Z,99709.47
2022-11-12T00:33:43.099Z,99716.53
2022-11-12T00:35:05.053Z,99723.59
2022-11-12T00:36:26.145Z,99741.63
2022-11-12T00:37:46.550Z,99744.31
2022-11-12T00:39:07.139Z,99733.31
2022-11-12T00:40:27.561Z,99744.97
2022-11-12T00:41:47.685Z,99740.38
2022-11-12T00:43:07.930Z,99744.13
2022-11-12T00:44:29.549Z,99747.84
2022-11-12T00:45:50.224Z,99747.84
2022-11-12T00:47:10.632Z,99752.41
2022-11-12T00:48:30.983Z,99756.16
2022-11-12T00:49:51.362Z,99770.69
2022-11-12T00:51:11.665Z,99768.63
2022-11-12T00:52:31.970Z,99769.88
2022-11-12T00:53:52.462Z,99786.25
2022-11-12T00:55:12.806Z,99781.06
2022-11-12T00:56:35.651Z,99787.50
2022-11-12T00:57:58.406Z,99788.53
2022-11-12T00:59:18.620Z,99769.44
2022-11-12T01:00:39.399Z,99787.50
2022-11-12T01:02:00.037Z,99789.38
2022-11-12T01:03:20.453Z,99799.34
2022-11-12T01:04:40.693Z,99794.78
2022-11-12T01:06:05.469Z,99797.06
2022-11-12T01:07:25.616Z,99802.44
2022-11-12T01:08:46.313Z,99795.19
2022-11-12T01:10:07.196Z,99808.25
2022-11-12T01:11:29.255Z,99818.03
2022-11-12T01:12:49.920Z,99830.47
2022-11-12T01:14:11.017Z,99836.06
2022-11-12T01:15:31.130Z,99844.56
2022-11-12T01:16:51.714Z,99859.53
2022-11-12T01:18:12.497Z,99857.25
2022-11-12T01:19:32.782Z,99868.22
2022-11-12T01:20:53.137Z,99876.13
2022-11-12T01:22:13.321Z,99883.38
2022-11-12T01:23:38.952Z,99896.06
2022-11-12T01:24:59.268Z,99901.03
2022-11-12T01:26:22.959Z,99897.09
2022-11-12T01:27:42.922Z,99887.06
2022-11-12T01:29:03.585Z,99890.66
2022-11-12T01:30:23.913Z,99900.59
2022-11-12T01:31:44.430Z,99908.06
2022-11-12T01:33:04.855Z,99900.16
2022-11-12T01:34:26.396Z,99912.66
2022-11-12T01:35:46.404Z,99919.69
2022-11-12T01:37:06.801Z,99929.66
2022-11-12T01:38:27.586Z,99935.91
2022-11-12T01:39:48.091Z,99948.53
2022-11-12T01:41:10.866Z,99953.31
2022-11-12T01:42:32.925Z,99949.97
2022-11-12T01:44:12.930Z,99961.00
2022-11-12T01:45:33.309Z,99966.97
2022-11-12T01:47:19.312Z,99977.00
2022-11-12T01:48:47.228Z,99986.13
2022-11-12T01:50:32.061Z,99994.41
2022-11-12T01:51:56.055Z,99991.06
2022-11-12T01:53:16.742Z,100004.38
2022-11-12T01:54:37.838Z,100019.91
2022-11-12T01:55:59.896Z,100020.31
2022-11-12T01:57:34.643Z,100029.25
2022-11-12T01:59:04.570Z,100031.72
2022-11-12T02:00:24.932Z,100049.59
2022-11-12T02:01:45.155Z,100043.75
2022-11-12T02:03:11.700Z,100034.19
2022-11-12T02:04:33.565Z,100047.50
2022-11-12T02:06:00.801Z,100050.38
2022-11-12T02:07:23.409Z,100045.84
2022-11-12T02:08:44.962Z,100058.28
2022-11-12T02:10:06.330Z,100051.81
2022-11-12T02:11:26.509Z,100054.91
2022-11-12T02:14:25.934Z,100066.38
2022-11-12T02:15:45.993Z,100074.03
2022-11-12T02:17:06.506Z,100080.44
2022-11-12T02:18:26.730Z,100073.38
2022-11-12T02:19:47.532Z,100077.97
2022-11-12T02:21:09.271Z,100069.00
2022-11-12T02:22:29.720Z,100073.53
2022-11-12T02:24:26.814Z,100093.94
2022-11-12T02:25:46.847Z,100093.94
2022-11-12T02:27:07.531Z,100103.91
2022-11-12T02:28:30.406Z,100104.69
2022-11-12T02:29:50.501Z,100105.53
2022-11-12T02:31:10.796Z,100120.69
2022-11-12T02:32:30.941Z,100120.44
2022-11-12T02:33:51.206Z,100127.50
2022-11-12T02:35:11.621Z,100145.34
2022-11-12T02:36:32.070Z,100154.47
2022-11-12T02:37:52.542Z,100147.97
2022-11-12T02:39:12.945Z,100142.00
2022-11-12T02:40:33.314Z,100152.78
2022-11-12T02:41:53.556Z,100162.56
2022-11-12T02:43:13.859Z,100152.78
2022-11-12T02:44:34.345Z,100180.56
2022-11-12T02:45:54.646Z,100195.94
2022-11-12T02:47:15.266Z,100196.97
2022-11-12T02:48:35.443Z,100198.00
2022-11-12T02:49:55.627Z,100214.19
2022-11-12T02:51:15.900Z,100219.59
2022-11-12T02:52:36.573Z,100223.06
2022-11-12T02:53:56.890Z,100223.31
2022-11-12T02:55:17.193Z,100236.81
2022-11-12T02:56:37.483Z,100241.94
2022-11-12T02:57:58.861Z,100230.78
2022-11-12T02:59:18.996Z,100248.63
2022-11-12T03:00:39.394Z,100257.75
2022-11-12T03:01:59.573Z,100273.06
2022-11-12T03:03:20.162Z,100288.44
2022-11-12T03:04:44.249Z,100293.81
2022-11-12T03:06:07.161Z,100293.81
2022-11-12T03:07:27.216Z,100290.09
2022-11-12T03:08:47.686Z,100296.69
2022-11-12T03:10:08.449Z,100295.03
2022-11-12T03:11:28.693Z,100291.31
2022-11-12T03:12:48.774Z,100305.16
2022-11-12T03:14:09.125Z,100308.69
2022-11-12T03:15:30.146Z,100304.31
2022-11-12T03:16:50.233Z,100308.88
2022-11-12T03:18:10.748Z,100321.53
2022-11-12T03:19:31.088Z,100327.97
2022-11-12T03:20:51.999Z,100333.53
2022-11-12T03:22:12.229Z,100340.78
2022-11-12T03:23:32.764Z,100326.84
2022-11-12T03:24:52.778Z,100348.88
2022-11-12T03:26:13.131Z,100336.44
2022-11-12T03:27:33.457Z,100343.88
2022-11-12T03:28:54.090Z,100335.78
2022-11-12T03:30:14.365Z,100346.47
2022-11-12T03:31:35.726Z,100344.03
2022-11-12T03:32:56.160Z,100366.66
2022-11-12T03:34:16.154Z,100368.53
2022-11-12T03:35:37.485Z,100374.94
2022-11-12T03:36:57.528Z,100380.34
2022-11-12T03:38:18.032Z,100377.81
2022-11-12T03:39:38.281Z,100392.31
2022-11-12T03:40:58.464Z,100390.66
2022-11-12T03:42:18.432Z,100385.16
2022-11-12T03:43:38.861Z,100391.84
2022-11-12T03:44:59.193Z,100398.09
2022-11-12T03:46:19.478Z,100392.03
2022-11-12T03:47:50.873Z,100400.97
2022-11-12T03:49:10.824Z,100417.78
2022-11-12T03:50:31.430Z,100417.13
2022-11-12T03:51:51.632Z,100418.16
2022-11-12T03:53:12.126Z,100423.75
2022-11-12T03:54:32.213Z,100402.09
2022-11-12T03:55:53.033Z,100433.69
2022-11-12T03:57:13.333Z,100437.41
2022-11-12T03:58:33.769Z,100436.59
2022-11-12T03:59:54.230Z,100440.09
2022-11-12T04:01:14.645Z,100429.78
2022-11-12T04:02:35.118Z,100435.94
2022-11-12T04:03:55.462Z,100444.03
2022-11-12T04:05:35.324Z,100439.19
2022-11-12T04:07:14.165Z,100447.38
2022-11-12T04:08:37.539Z,100457.13
2022-11-12T04:09:57.527Z,100461.88
2022-11-12T04:11:18.194Z,100457.03
2022-11-12T04:12:56.755Z,100472.19
2022-11-12T04:14:17.067Z,100484.25
2022-11-12T04:15:37.432Z,100478.59
2022-11-12T04:17:16.164Z,100486.69
2022-11-12T04:18:54.881Z,100476.75
2022-11-12T04:20:33.263Z,100477.19
2022-11-12T04:22:01.293Z,100491.69
2022-11-12T04:23:21.690Z,100489.00
2022-11-12T04:25:01.634Z,100491.25
2022-11-12T04:26:24.606Z,100470.31
2022-11-12T04:27:44.685Z,100500.16
2022-11-12T04:29:23.703Z,100496.81
2022-11-12T04:30:43.907Z,100491.78
2022-11-12T04:32:04.286Z,100500.16
2022-11-12T04:33:24.289Z,100512.16
2022-11-12T04:34:44.899Z,100505.25
2022-11-12T04:36:05.192Z,100496.31
2022-11-12T04:37:27.739Z,100497.28
2022-11-12T04:38:47.794Z,100501.72
2022-11-12T04:40:28.721Z,100488.66
2022-11-12T04:42:07.498Z,100515.03
2022-11-12T04:43:46.238Z,100527.13
2022-11-12T04:45:09.513Z,100522.84
2022-11-12T04:46:29.748Z,100534.06
2022-11-12T04:47:50.132Z,100542.34
2022-11-12T04:49:10.459Z,100530.91
2022-11-12T04:50:30.766Z,100534.34
2022-11-12T04:52:05.764Z,100550.69
2022-11-12T04:53:26.445Z,100566.97
2022-11-12T04:54:46.582Z,100569.84
2022-11-12T04:56:07.407Z,100581.84
2022-11-12T04:57:27.717Z,100587.22
2022-11-12T04:58:47.749Z,100578.84
2022-11-12T05:00:08.588Z,100587.41
2022-11-12T05:01:28.804Z,100586.75
2022-11-12T05:02:52.173Z,100592.13
2022-11-12T05:04:12.468Z,100600.88
2022-11-12T05:05:34.282Z,100593.00
2022-11-12T05:06:56.764Z,100592.13
2022-11-12T05:08:17.364Z,100598.38
2022-11-12T05:09:38.268Z,100587.47
2022-11-12T05:10:58.576Z,100594.81
2022-11-12T05:12:18.703Z,100605.81
2022-11-12T05:13:38.993Z,100603.13
2022-11-12T05:14:59.228Z,100603.13
2022-11-12T05:16:19.400Z,100604.66
2022-11-12T05:17:44.079Z,100605.81
2022-11-12T05:19:04.274Z,100607.47
2022-11-12T05:20:24.532Z,100612.88
2022-11-12T05:22:03.597Z,100605.81
2022-11-12T05:23:23.629Z,100612.69
2022-11-12T05:24:45.406Z,100613.22
2022-11-12T05:26:05.861Z,100612.22
2022-11-12T05:27:26.127Z,100619.28
2022-11-12T05:28:46.494Z,100618.63
2022-11-12T05:30:08.027Z,100624.00
2022-11-12T05:31:28.337Z,100614.28
2022-11-12T05:32:48.892Z,100620.53
2022-11-12T05:34:09.322Z,100640.19
2022-11-12T05:35:29.553Z,100653.66
2022-11-12T05:36:49.858Z,100644.59
2022-11-12T05:38:10.119Z,100654.69
2022-11-12T05:39:30.582Z,100657.53
2022-11-12T05:40:50.749Z,100655.69
2022-11-12T05:42:13.767Z,100665.63
2022-11-12T05:43:34.814Z,100665.47
2022-11-12T05:44:55.086Z,100668.81
2022-11-12T05:46:15.276Z,100660.75
2022-11-12T05:47:35.714Z,100672.53
2022-11-12T05:48:56.393Z,100680.78
2022-11-12T05:50:16.806Z,100676.41
2022-11-12T05:51:37.197Z,100668.03
2022-11-12T05:52:57.521Z,100676.25
2022-11-12T05:54:18.457Z,100687.53
2022-11-12T05:55:38.518Z,100690.91
2022-11-12T05:56:58.827Z,100695.28
2022-11-12T05:58:19.474Z,100694.44
2022-11-12T05:59:39.645Z,100702.53
2022-11-12T06:01:00.237Z,100699.84
2022-11-12T06:02:20.742Z,100705.22
2022-11-12T06:03:41.097Z,100714.13
2022-11-12T06:05:01.276Z,100702.19
2022-11-12T06:06:21.577Z,100723.06
2022-11-12T06:07:41.985Z,100727.81
2022-11-12T06:09:02.426Z,100731.31
2022-11-12T06:10:22.728Z,100726.78
2022-11-12T06:11:42.917Z,100742.09
2022-11-12T06:13:03.229Z,100739.25
2022-11-12T06:14:23.192Z,100742.97
2022-11-12T06:15:43.901Z,100747.50
2022-11-12T06:17:03.914Z,100751.88
2022-11-12T06:18:25.804Z,100745.81
2022-11-12T06:19:46.225Z,100752.88
2022-11-12T06:21:24.841Z,100754.75
2022-11-12T06:22:45.031Z,100759.59
2022-11-12T06:24:05.521Z,100760.81
2022-11-12T06:25:25.772Z,100760.81
2022-11-12T06:26:46.101Z,100764.53
2022-11-12T06:28:06.627Z,100773.44
2022-11-12T06:29:26.869Z,100768.22
2022-11-12T06:30:47.085Z,100751.91
2022-11-12T06:32:07.357Z,100768.22
2022-11-12T06:33:27.702Z,100774.59
2022-11-12T06:34:47.997Z,100773.63
2022-11-12T06:36:10.340Z,100771.91
2022-11-12T06:37:30.538Z,100765.53
2022-11-12T06:38:50.758Z,100772.94
2022-11-12T06:40:11.264Z,100765.38
2022-11-12T06:41:31.469Z,100777.31
2022-11-12T06:42:58.488Z,100778.16
2022-11-12T06:44:22.152Z,100783.38
2022-11-12T06:45:42.765Z,100781.19
2022-11-12T06:47:03.129Z,100800.56
2022-11-12T06:48:23.735Z,100796.00
2022-11-12T06:49:44.116Z,100798.84
2022-11-12T06:51:10.221Z,100786.94
2022-11-12T06:52:30.420Z,100797.88
2022-11-12T06:53:51.900Z,100805.97
2022-11-12T06:55:11.843Z,100806.94
2022-11-12T06:56:32.237Z,100804.25
2022-11-12T06:57:53.716Z,100804.25
2022-11-12T06:59:14.212Z,100798.84
2022-11-12T07:00:34.665Z,100813.34
2022-11-12T07:01:55.061Z,100804.25
2022-11-12T07:03:15.353Z,100795.84
2022-11-12T07:04:36.603Z,100807.97
2022-11-12T07:05:56.942Z,100806.13
2022-11-12T07:07:17.797Z,100807.97
2022-11-12T07:08:39.422Z,100815.03
2022-11-12T07:10:00.051Z,100809.63
2022-11-12T07:11:21.331Z,100809.47
2022-11-12T07:12:41.428Z,100815.53
2022-11-12T07:14:01.408Z,100817.06
2022-11-12T07:15:21.926Z,100808.59
2022-11-12T07:16:42.108Z,100812.78
2022-11-12T07:18:02.460Z,100828.59
2022-11-12T07:19:22.616Z,100818.34
2022-11-12T07:20:42.850Z,100821.03
2022-11-12T07:22:03.134Z,100838.16
2022-11-12T07:23:23.067Z,100836.81
2022-11-12T07:24:43.273Z,100837.31
2022-11-12T07:26:16.169Z,100837.78
2022-11-12T07:27:36.243Z,100845.00
2022-11-12T07:28:56.922Z,100843.31
2022-11-12T07:30:17.525Z,100856.75
2022-11-12T07:31:37.710Z,100860.09
2022-11-12T07:32:58.593Z,100850.53
2022-11-12T07:34:18.822Z,100869.84
2022-11-12T07:35:39.030Z,100872.22
2022-11-12T07:36:59.387Z,100883.47
2022-11-12T07:38:19.525Z,100875.03
2022-11-12T07:41:04.201Z,100893.84
2022-11-12T07:42:24.479Z,100894.16
2022-11-12T07:43:46.698Z,100888.47
2022-11-12T07:45:07.209Z,100886.06
2022-11-12T07:46:27.895Z,100880.88
2022-11-12T07:47:48.283Z,100904.94
2022-11-12T07:49:08.554Z,100899.22
2022-11-12T07:50:28.642Z,100917.72
2022-11-12T07:51:48.989Z,100922.75
2022-11-12T07:53:09.446Z,100920.41
2022-11-12T07:54:29.837Z,100928.44
2022-11-12T07:55:54.925Z,100938.06
2022-11-12T07:57:15.053Z,100957.41
2022-11-12T07:58:35.208Z,100945.59
2022-11-12T07:59:55.545Z,100940.19
2022-11-12T08:01:36.094Z,100949.09
2022-11-12T08:03:00.339Z,100960.56
2022-11-12T08:04:20.689Z,100940.03
2022-11-12T08:05:41.158Z,100970.13
2022-11-12T08:07:01.829Z,100951.22
2022-11-12T08:08:22.049Z,100963.59
2022-11-12T08:09:42.234Z,100972.34
2022-11-12T08:11:02.454Z,100969.13
2022-11-12T08:12:22.725Z,100967.59
2022-11-12T08:13:43.146Z,100971.97
2022-11-12T08:15:04.050Z,100992.56
2022-11-12T08:16:25.099Z,101000.50
2022-11-12T08:17:45.357Z,100992.22
2022-11-12T08:19:05.613Z,100994.75
2022-11-12T08:20:25.869Z,100994.75
2022-11-12T08:21:46.292Z,100989.69
2022-11-12T08:23:06.646Z,100993.53
2022-11-12T08:24:26.945Z,100983.09
2022-11-12T08:25:47.302Z,100990.66
2022-11-12T08:27:07.545Z,100989.63
2022-11-12T08:28:32.333Z,101003.50
2022-11-12T08:29:52.554Z,100989.63
2022-11-12T08:31:15.656Z,100993.16
2022-11-12T08:32:35.598Z,100981.34
2022-11-12T08:33:55.914Z,100996.41
2022-11-12T08:35:16.386Z,101001.09
2022-11-12T08:36:36.813Z,101012.94
2022-11-12T08:38:02.433Z,101013.94
2022-11-12T08:39:22.771Z,101003.88
2022-11-12T08:40:43.018Z,101018.34
2022-11-12T08:42:03.225Z,101011.06
2022-11-12T08:43:23.860Z,101019.00
2022-11-12T08:44:44.265Z,101028.13
2022-11-12T08:46:05.343Z,101024.41
2022-11-12T08:47:25.483Z,101027.09
2022-11-12T08:48:45.880Z,101028.13
2022-11-12T08:50:06.765Z,101037.03
2022-11-12T08:51:27.188Z,101040.59
2022-11-12T08:52:47.425Z,101030.81
2022-11-12T08:54:07.678Z,101037.25
2022-11-12T08:55:29.618Z,101030.16
2022-11-12T08:56:49.961Z,101032.66
2022-11-12T08:58:11.011Z,101025.41
2022-11-12T08:59:31.136Z,101030.69
2022-11-12T09:00:52.787Z,101034.53
2022-11-12T09:02:13.986Z,101039.28
2022-11-12T09:03:34.345Z,101056.97
2022-11-12T09:04:54.484Z,101063.59
2022-11-12T09:06:14.651Z,101055.28
2022-11-12T09:07:49.532Z,101062.38
2022-11-12T09:09:11.049Z,101075.72
2022-11-12T09:10:32.054Z,101069.47
2022-11-12T09:11:52.017Z,101085.88
2022-11-12T09:13:12.350Z,101090.25
2022-11-12T09:14:32.239Z,101091.28
2022-11-12T09:15:52.361Z,101087.72
2022-11-12T09:17:13.434Z,101087.41
2022-11-12T09:18:34.608Z,101094.13
2022-11-12T09:19:55.028Z,101112.88
2022-11-12T09:21:15.378Z,101107.63
2022-11-12T09:22:35.753Z,101117.44
2022-11-12T09:23:56.089Z,101111.72
2022-11-12T09:25:16.327Z,101108.50
2022-11-12T09:26:36.656Z,101112.03
2022-11-12T09:27:57.110Z,101106.25
2022-11-12T09:29:17.569Z,101105.59
2022-11-12T09:30:41.630Z,101115.66
2022-11-12T09:32:01.722Z,101127.09
2022-11-12T09:33:27.793Z,101126.88
2022-11-12T09:34:48.029Z,101101.50
2022-11-12T09:36:08.413Z,101131.66
2022-11-12T09:37:28.650Z,101130.00
2022-11-12T09:38:49.021Z,101116.59
2022-11-12T09:40:17.632Z,101148.75
2022-11-12T09:41:41.188Z,101146.91
2022-11-12T09:43:09.773Z,101148.00
2022-11-12T09:44:36.538Z,101152.41
2022-11-12T09:47:49.564Z,101169.03
2022-11-12T09:49:18.933Z,101171.38
2022-11-12T09:51:10.447Z,101192.19
2022-11-12T09:52:31.352Z,101184.28
2022-11-12T09:54:10.170Z,101202.81
2022-11-12T09:55:35.019Z,101204.84
2022-11-12T09:56:55.601Z,101213.81
2022-11-12T09:58:17.342Z,101203.19
2022-11-12T09:59:41.047Z,101229.41
2022-11-12T10:01:18.108Z,101234.84
2022-11-12T10:03:08.647Z,101228.88
2022-11-12T10:04:50.685Z,101221.28
2022-11-12T10:06:23.821Z,101226.41
2022-11-12T10:07:53.359Z,101222.84
2022-11-12T10:09:23.117Z,101234.25
2022-11-12T10:11:01.548Z,101241.72
2022-11-12T10:12:33.221Z,101254.59
2022-11-12T10:14:05.801Z,101252.94
2022-11-12T10:15:56.532Z,101231.50
2022-11-12T10:17:29.084Z,101250.75
2022-11-12T10:19:04.721Z,101266.56
2022-11-12T10:20:38.929Z,101251.03
2022-11-12T10:22:32.570Z,101268.13
2022-11-12T10:23:53.945Z,101270.16
2022-11-12T10:25:17.590Z,101267.44
2022-11-12T10:26:40.003Z,101271.66
2022-11-12T10:28:09.181Z,101280.31
2022-11-12T10:29:40.065Z,101274.88
2022-11-12T10:31:12.707Z,101281.53
2022-11-12T10:32:36.618Z,101282.72
2022-11-12T10:34:19.285Z,101285.44
2022-11-12T10:35:39.769Z,101284.78
2022-11-12T10:37:12.189Z,101284.34
2022-11-12T10:38:34.604Z,101310.03
2022-11-12T10:39:55.106Z,101301.13
2022-11-12T10:41:25.336Z,101289.97
2022-11-12T10:43:07.242Z,101314.97
2022-11-12T10:44:28.053Z,101317.81
2022-11-12T10:45:49.787Z,101293.44
2022-11-12T10:47:27.267Z,101316.84
2022-11-12T10:49:22.511Z,101315.84
2022-11-12T10:50:43.174Z,101333.97
2022-11-12T10:52:03.526Z,101346.31
2022-11-12T10:53:34.474Z,101344.16
2022-11-12T10:55:19.933Z,101354.97
2022-11-12T10:56:39.861Z,101358.53
2022-11-12T10:58:07.880Z,101370.91
2022-11-12T10:59:28.127Z,101361.09
2022-11-12T11:01:07.362Z,101364.81
2022-11-12T11:02:27.629Z,101371.09
2022-11-12T11:03:55.420Z,101373.50
2022-11-12T11:05:37.403Z,101377.69
2022-11-12T11:07:20.211Z,101382.28
2022-11-12T11:08:46.967Z,101374.31
2022-11-12T11:10:23.721Z,101387.03
2022-11-12T11:11:51.884Z,101404.44
2022-11-12T11:13:38.311Z,101390.56
2022-11-12T11:15:10.932Z,101407.16
2022-11-12T11:16:32.085Z,101388.25
2022-11-12T11:17:52.912Z,101408.19
2022-11-12T11:19:13.169Z,101402.78
2022-11-12T11:20:47.513Z,101417.34
2022-11-12T11:22:36.640Z,101419.03
2022-11-12T11:24:39.166Z,101426.44
2022-11-12T11:26:17.375Z,101430.97
2022-11-12T11:28:02.006Z,101432.34
2022-11-12T11:29:57.316Z,101437.41
2022-11-12T11:31:17.297Z,101446.75
2022-11-12T11:33:02.048Z,101450.16
2022-11-12T11:34:38.401Z,101469.09
2022-11-12T11:36:16.517Z,101464.69
2022-11-12T11:37:58.309Z,101464.69
2022-11-12T11:39:31.986Z,101450.00
2022-11-12T11:41:13.490Z,101476.34
2022-11-12T11:43:01.729Z,101478.56
2022-11-12T11:44:38.946Z,101479.22
2022-11-12T11:46:02.348Z,101490.41
2022-11-12T11:48:00.653Z,101476.38
2022-11-12T11:49:37.917Z,101480.41
2022-11-12T11:51:03.948Z,101481.59
2022-11-12T11:52:46.076Z,101481.59
2022-11-12T11:54:18.591Z,101474.38
2022-11-12T11:55:53.106Z,101485.34
2022-11-12T11:57:22.672Z,101501.88
2022-11-12T11:59:21.414Z,101511.34
2022-11-12T12:01:20.154Z,101528.28
2022-11-12T12:03:15.325Z,101511.19
2022-11-12T12:04:51.401Z,101514.75
2022-11-12T12:06:21.732Z,101522.19
2022-11-12T12:07:46.561Z,101513.03
2022-11-12T12:09:18.621Z,101542.97
2022-11-12T12:11:06.862Z,101529.97
2022-11-12T12:12:43.304Z,101540.28
2022-11-12T12:14:07.668Z,101524.88
2022-11-12T12:15:47.804Z,101516.41
2022-11-12T12:17:32.370Z,101517.09
2022-11-12T12:19:05.768Z,101556.78
2022-11-12T12:21:00.271Z,101550.69
2022-11-12T12:22:36.336Z,101548.63
2022-11-12T12:23:59.500Z,101548.44
2022-11-12T12:25:29.467Z,101547.22
2022-11-12T12:27:11.659Z,101560.59
2022-11-12T12:28:39.927Z,101552.78
2022-11-12T12:30:07.429Z,101530.94
2022-11-12T12:31:35.682Z,101557.84
2022-11-12T12:33:01.396Z,101543.00
2022-11-12T12:34:31.784Z,101568.19
2022-11-12T12:35:58.088Z,101567.31
2022-11-12T12:37:24.333Z,101579.84
2022-11-12T12:38:51.853Z,101577.31
2022-11-12T12:40:23.426Z,101593.38
2022-11-12T12:41:56.451Z,101603.88
2022-11-12T12:43:33.375Z,101590.66
2022-11-12T12:45:03.404Z,101593.38
2022-11-12T12:46:27.199Z,101598.97
2022-11-12T12:47:49.771Z,101596.78
2022-11-12T12:49:19.306Z,101600.88
2022-11-12T12:50:41.422Z,101585.63
2022-11-12T12:52:01.529Z,101616.59
2022-11-12T12:53:24.874Z,101615.09
2022-11-12T12:54:48.309Z,101614.44
2022-11-12T12:56:14.521Z,101621.88
2022-11-12T12:57:39.842Z,101620.16
2022-11-12T12:59:03.808Z,101618.81
2022-11-12T13:00:32.027Z,101629.66
2022-11-12T13:01:57.242Z,101623.88
2022-11-12T13:03:55.114Z,101600.06
2022-11-12T13:05:34.643Z,101641.28
2022-11-12T13:06:55.356Z,101634.38
2022-11-12T13:08:26.669Z,101637.28
2022-11-12T13:09:47.293Z,101641.47
2022-11-12T13:11:08.233Z,101640.13
2022-11-12T13:13:05.848Z,101616.16
2022-11-12T13:14:35.085Z,101642.69
2022-11-12T13:15:57.419Z,101649.28
2022-11-12T13:17:47.785Z,101653.00
2022-11-12T13:19:07.918Z,101653.00
2022-11-12T13:20:34.593Z,101659.09
2022-11-12T13:22:19.451Z,101636.28
2022-11-12T13:24:04.774Z,101648.44
2022-11-12T13:25:30.976Z,101652.00
2022-11-12T13:26:56.763Z,101658.75
2022-11-12T13:28:17.109Z,101676.00
2022-11-12T13:29:37.054Z,101669.25
2022-11-12T13:30:58.935Z,101673.97
2022-11-12T13:32:40.346Z,101667.72
2022-11-12T13:34:13.561Z,101653.84
2022-11-12T13:35:36.051Z,101668.25
2022-11-12T13:37:01.765Z,101681.44
2022-11-12T13:38:22.276Z,101691.56
2022-11-12T13:39:43.590Z,101677.38
2022-11-12T13:41:19.693Z,101690.72
2022-11-12T13:42:49.350Z,101689.03
2022-11-12T13:44:16.299Z,101689.22
2022-11-12T13:46:06.289Z,101685.50
2022-11-12T13:47:29.468Z,101673.47
2022-11-12T13:49:02.458Z,101687.31
2022-11-12T13:50:25.134Z,101670.44
2022-11-12T13:51:48.080Z,101695.97
2022-11-12T13:53:11.354Z,101687.00
2022-11-12T13:54:37.348Z,101680.75
2022-11-12T13:55:57.283Z,101679.75
2022-11-12T13:57:20.733Z,101681.06
2022-11-12T13:58:40.951Z,101671.78
2022-11-12T14:00:28.518Z,101680.56
2022-11-12T14:01:50.042Z,101687.16
2022-11-12T14:03:17.139Z,101690.19
2022-11-12T14:04:37.634Z,101682.75
2022-11-12T14:06:14.737Z,101703.22
2022-11-12T14:07:47.311Z,101692.91
2022-11-12T14:09:23.631Z,101697.47
2022-11-12T14:10:58.881Z,101707.44
2022-11-12T14:12:35.874Z,101691.88
2022-11-12T14:14:01.938Z,101700.66
2022-11-12T14:15:38.606Z,101696.13
2022-11-12T14:17:32.885Z,101714.88
2022-11-12T14:19:37.931Z,101716.22
2022-11-12T14:20:58.824Z,101718.94
2022-11-12T14:22:21.085Z,101711.16
2022-11-12T14:23:46.037Z,101709.13
2022-11-12T14:25:24.521Z,101723.84
2022-11-12T14:26:44.602Z,101733.47
2022-11-12T14:28:05.403Z,101728.38
2022-11-12T14:29:29.923Z,101737.50
2022-11-12T14:30:53.649Z,101752.72
2022-11-12T14:32:15.369Z,101746.63
2022-11-12T14:33:35.945Z,101746.63
2022-11-12T14:34:56.391Z,101756.59
2022-11-12T14:36:19.076Z,101737.66
2022-11-12T14:37:43.709Z,101756.59
2022-11-12T14:39:04.409Z,101766.25
2022-11-12T14:40:27.512Z,101757.75
2022-11-12T14:41:49.316Z,101754.59
2022-11-12T14:43:32.757Z,101765.91
2022-11-12T14:44:53.165Z,101776.41
2022-11-12T14:46:29.287Z,101761.38
2022-11-12T14:47:51.498Z,101746.59
2022-11-12T14:49:29.942Z,101768.63
2022-11-12T14:50:56.933Z,101767.59
2022-11-12T14:52:30.179Z,101771.31
2022-11-12T14:54:00.114Z,101782.13
2022-11-12T14:55:28.162Z,101787.53
2022-11-12T14:56:49.321Z,101772.34
2022-11-12T14:58:15.156Z,101784.16
2022-11-12T14:59:36.659Z,101789.56
2022-11-12T15:00:56.761Z,101801.41
2022-11-12T15:02:32.542Z,101777.34
2022-11-12T15:04:11.065Z,101789.41
2022-11-12T15:05:31.305Z,101791.25
2022-11-12T15:06:54.060Z,101796.28
2022-11-12T15:08:32.197Z,101790.75
2022-11-12T15:09:52.257Z,101793.47
2022-11-12T15:11:31.185Z,101804.09
2022-11-12T15:12:51.447Z,101799.84
2022-11-12T15:14:23.116Z,101791.88
2022-11-12T15:16:08.083Z,101802.41
2022-11-12T15:17:34.639Z,101794.59
2022-11-12T15:19:25.900Z,101801.41
2022-11-12T15:21:01.524Z,101806.75
2022-11-12T15:22:23.185Z,101810.81
2022-11-12T15:23:52.530Z,101804.88
2022-11-12T15:25:22.154Z,101820.28
2022-11-12T15:26:45.164Z,101814.19
2022-11-12T15:28:22.742Z,101814.00
2022-11-12T15:29:42.745Z,101821.28
2022-11-12T15:31:17.085Z,101819.91
2022-11-12T15:32:37.518Z,101823.31
2022-11-12T15:34:27.935Z,101828.72
2022-11-12T15:35:56.631Z,101834.13
2022-11-12T15:37:19.891Z,101839.84
2022-11-12T15:38:40.043Z,101833.78
2022-11-12T15:40:05.883Z,101830.34
2022-11-12T15:41:29.682Z,101845.06
2022-11-12T15:42:50.359Z,101849.44
2022-11-12T15:44:11.201Z,101838.28
2022-11-12T15:45:31.329Z,101850.09
2022-11-12T15:46:53.014Z,101865.31
2022-11-12T15:48:13.016Z,101849.97
2022-11-12T15:49:33.485Z,101859.06
2022-11-12T15:50:54.406Z,101836.19
2022-11-12T15:52:14.811Z,101860.09
2022-11-12T15:53:35.240Z,101861.38
2022-11-12T15:54:55.760Z,101847.19
2022-11-12T15:56:19.302Z,101841.47
2022-11-12T15:57:43.688Z,101853.47
2022-11-12T15:59:04.058Z,101859.41
2022-11-12T16:00:26.859Z,101853.28
2022-11-12T16:01:47.063Z,101867.66
2022-11-12T16:03:19.060Z,101848.06
2022-11-12T16:04:39.401Z,101855.97
2022-11-12T16:06:03.951Z,101844.13
2022-11-12T16:07:27.513Z,101848.88
2022-11-12T16:08:47.841Z,101860.00
2022-11-12T16:10:13.776Z,101848.16
2022-11-12T16:11:37.207Z,101874.41
2022-11-12T16:12:59.434Z,101860.66
2022-11-12T16:14:24.513Z,101867.75
2022-11-12T16:15:45.381Z,101885.03
2022-11-12T16:17:10.415Z,101877.25
2022-11-12T16:18:30.692Z,101871.50